Time;durP1;ratioP1;P1;durP2;ratioP2;P2;SDS_P1;SDS_P2;PMS_P1;PMS_P2;Temp;Humidity;BMP_temperature;BMP_pressure;BME280_temperature;BME280_humidity;BME280_pressure;Samples;Min_cycle;Max_cycle;Signal;HPM_P1;HPM_P2
2021/05/15 00:01:03;;;;;;;0.47;0.47;;;11.00;90.10;;;;;;5075492;28;20041;-69
2021/05/15 00:03:29;;;;;;;0.75;0.65;;;10.90;90.10;;;;;;5075082;28;20085;-69
2021/05/15 00:05:54;;;;;;;1.23;0.60;;;10.90;90.30;;;;;;5056928;28;20102;-69
2021/05/15 00:08:20;;;;;;;1.83;0.70;;;10.90;90.20;;;;;;5039801;28;20470;-69
2021/05/15 00:10:48;;;;;;;2.28;0.70;;;10.80;90.40;;;;;;5074636;28;20090;-69
2021/05/15 00:13:14;;;;;;;1.45;0.90;;;10.80;90.50;;;;;;5074051;28;20028;-69
2021/05/15 00:15:40;;;;;;;0.60;0.60;;;10.70;90.70;;;;;;5074585;28;20032;-69
2021/05/15 00:18:05;;;;;;;1.70;0.70;;;10.70;90.90;;;;;;5077949;28;20036;-69
2021/05/15 00:20:31;;;;;;;1.58;0.75;;;10.70;91.20;;;;;;5067514;28;20032;-69
2021/05/15 00:22:57;;;;;;;0.95;0.43;;;10.60;91.10;;;;;;5074857;28;20044;-70
2021/05/15 00:25:22;;;;;;;1.38;0.60;;;10.60;91.20;;;;;;5072767;28;20032;-69
2021/05/15 00:27:48;;;;;;;1.05;0.50;;;10.60;91.10;;;;;;5074468;28;20028;-69
2021/05/15 00:30:16;;;;;;;0.75;0.50;;;10.60;91.30;;;;;;5072078;28;20029;-68
2021/05/15 00:32:41;;;;;;;0.80;0.52;;;10.60;91.40;;;;;;5061428;28;20027;-69
2021/05/15 00:35:09;;;;;;;1.90;0.73;;;10.50;91.20;;;;;;5069557;28;20028;-69
2021/05/15 00:37:35;;;;;;;2.05;0.70;;;10.60;92.10;;;;;;5073634;28;20025;-69
2021/05/15 00:40:01;;;;;;;0.70;0.40;;;10.70;92.00;;;;;;5074167;28;20062;-69
2021/05/15 00:42:27;;;;;;;1.20;0.60;;;10.60;91.30;;;;;;5054995;28;20035;-69
2021/05/15 00:44:53;;;;;;;0.93;0.47;;;10.50;91.30;;;;;;5074278;28;20346;-69
2021/05/15 00:47:21;;;;;;;1.55;0.50;;;10.50;91.50;;;;;;5055708;28;20086;-69
2021/05/15 00:49:49;;;;;;;3.05;0.77;;;10.50;92.20;;;;;;5055754;28;20120;-69
2021/05/15 00:52:15;;;;;;;0.60;0.43;;;10.60;94.10;;;;;;5073221;28;20097;-68
2021/05/15 00:54:42;;;;;;;1.33;0.30;;;10.50;93.50;;;;;;5055908;28;20036;-68
2021/05/15 00:57:09;;;;;;;1.45;0.52;;;10.50;93.10;;;;;;5073970;28;20043;-68
2021/05/15 00:59:36;;;;;;;0.82;0.38;;;10.50;93.00;;;;;;5073431;28;20044;-68
2021/05/15 01:02:03;;;;;;;0.60;0.35;;;10.50;92.50;;;;;;5073571;28;20043;-68
2021/05/15 01:04:28;;;;;;;1.05;0.50;;;10.40;92.60;;;;;;5054822;28;20059;-68
2021/05/15 01:06:54;;;;;;;1.67;0.43;;;10.40;92.50;;;;;;5073760;28;20462;-68
2021/05/15 01:09:20;;;;;;;2.30;0.55;;;10.40;92.50;;;;;;5072945;28;20107;-68
2021/05/15 01:11:46;;;;;;;2.67;0.68;;;10.40;92.40;;;;;;5071625;28;20039;-68
2021/05/15 01:14:12;;;;;;;0.32;0.30;;;10.30;92.80;;;;;;5068424;28;20035;-67
2021/05/15 01:16:38;;;;;;;2.13;0.52;;;10.30;93.00;;;;;;5066665;28;20095;-68
2021/05/15 01:19:04;;;;;;;2.47;0.43;;;10.20;93.50;;;;;;5070831;28;20059;-68
2021/05/15 01:21:30;;;;;;;1.88;0.85;;;10.20;92.20;;;;;;5065755;28;20025;-68
2021/05/15 01:23:56;;;;;;;1.13;0.47;;;10.10;91.30;;;;;;5068939;28;20082;-68
2021/05/15 01:26:25;;;;;;;1.00;0.35;;;10.00;91.20;;;;;;5070318;28;20385;-68
2021/05/15 01:28:56;;;;;;;0.40;0.38;;;10.00;91.30;;;;;;5062779;28;20035;-69
2021/05/15 01:31:26;;;;;;;0.45;0.40;;;10.00;91.90;;;;;;5067369;28;20020;-70
2021/05/15 01:33:52;;;;;;;1.10;0.50;;;9.90;92.00;;;;;;5069028;28;20036;-69
2021/05/15 01:36:18;;;;;;;0.47;0.40;;;9.90;92.30;;;;;;5063954;28;20032;-68
2021/05/15 01:38:44;;;;;;;0.77;0.40;;;9.90;92.40;;;;;;5050815;28;20120;-68
2021/05/15 01:41:12;;;;;;;2.55;0.50;;;9.80;92.70;;;;;;5072265;28;20056;-68
2021/05/15 01:43:39;;;;;;;0.65;0.40;;;9.90;92.50;;;;;;5069058;28;20094;-69
2021/05/15 01:46:06;;;;;;;0.35;0.35;;;9.90;92.50;;;;;;5067166;28;20111;-68
2021/05/15 01:48:32;;;;;;;0.60;0.38;;;9.80;92.70;;;;;;5046710;28;20202;-68
2021/05/15 01:51:02;;;;;;;0.57;0.40;;;9.80;92.90;;;;;;5052582;28;20078;-68
2021/05/15 01:53:31;;;;;;;1.58;0.70;;;9.80;93.10;;;;;;5047276;28;20024;-68
2021/05/15 01:55:57;;;;;;;1.38;0.50;;;9.70;93.30;;;;;;5072860;28;20036;-69
2021/05/15 01:58:24;;;;;;;0.50;0.40;;;9.70;94.30;;;;;;5071792;28;20025;-69
2021/05/15 02:00:50;;;;;;;0.50;0.45;;;9.70;94.80;;;;;;5071886;28;20040;-69
2021/05/15 02:03:16;;;;;;;1.60;0.60;;;9.70;93.70;;;;;;5053889;28;20473;-68
2021/05/15 02:05:42;;;;;;;0.52;0.43;;;9.60;93.90;;;;;;5072183;28;20031;-69
2021/05/15 02:08:11;;;;;;;3.10;0.60;;;9.80;96.60;;;;;;5054337;28;20052;-69
2021/05/15 02:10:37;;;;;;;2.72;0.55;;;9.70;96.40;;;;;;5048072;28;20028;-69
2021/05/15 02:13:03;;;;;;;2.75;0.52;;;9.70;96.40;;;;;;5054316;28;20039;-69
2021/05/15 02:15:29;;;;;;;1.00;0.40;;;9.60;96.30;;;;;;5053752;28;20043;-69
2021/05/15 02:17:57;;;;;;;2.47;0.70;;;9.60;97.30;;;;;;5072672;28;20366;-68
2021/05/15 02:20:27;;;;;;;3.03;0.50;;;9.70;97.00;;;;;;5071394;28;20087;-69
2021/05/15 02:22:52;;;;;;;1.42;0.50;;;9.50;95.00;;;;;;5064877;28;20093;-69
2021/05/15 02:25:19;;;;;;;1.52;0.60;;;9.50;95.10;;;;;;5070840;28;20029;-68
2021/05/15 02:27:44;;;;;;;1.30;0.45;;;9.50;95.10;;;;;;5071551;28;20062;-68
2021/05/15 02:30:11;;;;;;;0.55;0.55;;;9.50;95.10;;;;;;5071362;28;20060;-68
2021/05/15 02:32:36;;;;;;;1.52;0.60;;;9.50;95.30;;;;;;5071138;28;20039;-70
2021/05/15 02:35:03;;;;;;;2.25;0.60;;;9.50;95.20;;;;;;5072058;28;20024;-68
2021/05/15 02:37:28;;;;;;;1.90;0.60;;;9.50;95.40;;;;;;5071091;28;20418;-68
2021/05/15 02:39:54;;;;;;;1.85;0.60;;;9.50;95.50;;;;;;5053376;28;20025;-68
2021/05/15 02:42:20;;;;;;;1.65;0.73;;;9.40;95.70;;;;;;5070864;28;20025;-68
2021/05/15 02:44:45;;;;;;;1.80;0.40;;;9.40;96.10;;;;;;5072054;28;20111;-69
2021/05/15 02:47:11;;;;;;;1.27;0.50;;;9.30;96.40;;;;;;5071895;28;20392;-68
2021/05/15 02:49:37;;;;;;;1.35;0.60;;;9.30;96.90;;;;;;5070973;28;20389;-69
2021/05/15 02:52:02;;;;;;;0.80;0.50;;;9.20;97.10;;;;;;5053375;28;20458;-68
2021/05/15 02:54:28;;;;;;;2.05;0.47;;;9.20;97.50;;;;;;5070751;28;20107;-69
2021/05/15 02:56:54;;;;;;;0.90;0.60;;;9.20;97.90;;;;;;5071723;28;20099;-69
2021/05/15 02:59:20;;;;;;;0.65;0.40;;;9.10;98.00;;;;;;5070400;28;20048;-68
2021/05/15 03:01:45;;;;;;;0.75;0.47;;;9.10;98.00;;;;;;5053415;28;20028;-69
2021/05/15 03:04:11;;;;;;;4.35;0.70;;;9.10;98.40;;;;;;5076706;28;20037;-69
2021/05/15 03:06:36;;;;;;;1.83;0.63;;;9.10;98.60;;;;;;5071902;28;20070;-69
2021/05/15 03:09:03;;;;;;;1.02;0.55;;;9.10;98.60;;;;;;5072049;28;20436;-69
2021/05/15 03:11:28;;;;;;;2.50;0.60;;;9.10;98.60;;;;;;5052870;28;20059;-68
2021/05/15 03:13:54;;;;;;;2.72;0.88;;;9.10;98.90;;;;;;5071266;28;20052;-69
2021/05/15 03:16:19;;;;;;;1.38;0.77;;;9.00;99.00;;;;;;5039016;28;20028;-68
2021/05/15 03:18:45;;;;;;;1.30;0.57;;;9.00;99.30;;;;;;5067088;28;20059;-69
2021/05/15 03:21:12;;;;;;;1.88;0.80;;;8.90;99.70;;;;;;5070455;28;20024;-68
2021/05/15 03:23:38;;;;;;;1.63;0.70;;;8.90;99.80;;;;;;5052470;28;20033;-69
2021/05/15 03:26:03;;;;;;;1.67;0.80;;;8.90;99.90;;;;;;5053146;28;20459;-68
2021/05/15 03:28:29;;;;;;;1.27;0.63;;;8.90;99.80;;;;;;5070673;28;20052;-69
2021/05/15 03:30:55;;;;;;;0.98;0.75;;;8.90;99.60;;;;;;5052673;28;20393;-68
2021/05/15 03:33:20;;;;;;;1.52;0.60;;;8.90;99.50;;;;;;5070575;28;20032;-68
2021/05/15 03:35:46;;;;;;;0.77;0.73;;;8.90;99.40;;;;;;5053447;28;20025;-69
2021/05/15 03:38:11;;;;;;;0.65;0.63;;;8.90;99.40;;;;;;5028596;28;20137;-68
2021/05/15 03:40:37;;;;;;;1.40;0.50;;;8.90;99.40;;;;;;5023288;28;20618;-69
2021/05/15 03:43:03;;;;;;;1.73;0.47;;;8.90;99.50;;;;;;5018177;28;20053;-68
2021/05/15 03:45:30;;;;;;;1.83;0.50;;;9.00;99.40;;;;;;5028129;28;20087;-68
2021/05/15 03:47:55;;;;;;;1.88;0.65;;;9.00;99.30;;;;;;5012191;28;20044;-69
2021/05/15 03:50:22;;;;;;;2.10;0.60;;;9.00;99.30;;;;;;5011599;28;20034;-68
2021/05/15 03:52:49;;;;;;;0.63;0.43;;;9.00;99.20;;;;;;5028164;28;20048;-69
2021/05/15 03:55:15;;;;;;;2.45;0.70;;;9.10;99.10;;;;;;5028549;28;20400;-67
2021/05/15 03:57:40;;;;;;;1.45;0.70;;;9.10;99.10;;;;;;5027986;28;20116;-70
2021/05/15 04:00:08;;;;;;;2.72;0.60;;;9.10;99.10;;;;;;5012460;28;20132;-69
2021/05/15 04:02:34;;;;;;;2.15;0.82;;;9.10;99.00;;;;;;4998394;28;20030;-69
2021/05/15 04:05:00;;;;;;;3.10;0.68;;;9.10;99.00;;;;;;5008938;28;20033;-70
2021/05/15 04:07:25;;;;;;;0.40;0.40;;;9.20;98.90;;;;;;4993516;28;20038;-69
2021/05/15 04:09:51;;;;;;;4.03;1.10;;;9.20;98.80;;;;;;5049267;28;20037;-69
2021/05/15 04:12:17;;;;;;;1.77;0.50;;;9.30;98.60;;;;;;5066750;28;20020;-68
2021/05/15 04:14:46;;;;;;;2.03;0.65;;;9.40;98.50;;;;;;5065538;28;20093;-69
2021/05/15 04:17:28;;;;;;;2.28;0.55;;;9.50;98.00;;;;;;5063904;28;20021;-69
2021/05/15 04:19:54;;;;;;;1.27;0.63;;;9.60;97.30;;;;;;5047711;28;20078;-69
2021/05/15 04:22:19;;;;;;;0.88;0.60;;;9.70;96.70;;;;;;5047158;28;20025;-68
2021/05/15 04:24:45;;;;;;;1.63;0.60;;;9.80;96.20;;;;;;5065749;28;20047;-69
2021/05/15 04:27:12;;;;;;;2.00;0.43;;;9.80;95.80;;;;;;5069965;28;20042;-69
2021/05/15 04:29:39;;;;;;;1.95;0.60;;;9.90;95.50;;;;;;5050241;28;20501;-69
2021/05/15 04:32:05;;;;;;;0.77;0.50;;;10.00;94.60;;;;;;5050889;28;20033;-69
2021/05/15 04:34:30;;;;;;;2.63;0.50;;;10.00;94.30;;;;;;5067163;28;20116;-69
2021/05/15 04:36:58;;;;;;;2.05;0.75;;;10.00;93.90;;;;;;5068346;28;20451;-69
2021/05/15 04:39:25;;;;;;;2.28;0.73;;;10.10;93.90;;;;;;5069372;28;20024;-70
2021/05/15 04:41:52;;;;;;;2.83;0.80;;;10.00;93.90;;;;;;5062964;28;20033;-68
2021/05/15 04:44:18;;;;;;;2.88;0.70;;;10.10;94.00;;;;;;5069699;28;20145;-66
2021/05/15 04:46:44;;;;;;;2.90;0.63;;;10.10;93.40;;;;;;5070660;28;20465;-70
2021/05/15 04:49:09;;;;;;;1.83;0.55;;;10.10;93.40;;;;;;5051913;28;20032;-67
2021/05/15 04:51:35;;;;;;;2.45;0.68;;;10.10;93.40;;;;;;5069298;28;20120;-67
2021/05/15 04:54:02;;;;;;;1.00;0.70;;;10.10;93.30;;;;;;5072204;28;20036;-68
2021/05/15 04:56:29;;;;;;;1.35;0.60;;;10.20;92.80;;;;;;5069208;28;20073;-67
2021/05/15 04:58:55;;;;;;;1.40;0.60;;;10.20;92.40;;;;;;5039900;28;20496;-69
2021/05/15 05:01:21;;;;;;;1.60;0.70;;;10.20;92.50;;;;;;5089371;28;20028;-67
2021/05/15 05:03:47;;;;;;;1.23;0.63;;;10.20;92.80;;;;;;5087188;28;20041;-68
2021/05/15 05:06:13;;;;;;;3.58;0.80;;;10.20;92.40;;;;;;5088577;28;20032;-68
2021/05/15 05:08:39;;;;;;;1.05;0.70;;;10.10;92.10;;;;;;5090851;28;20038;-68
2021/05/15 05:11:04;;;;;;;1.05;0.50;;;10.20;92.00;;;;;;5089264;28;20054;-68
2021/05/15 05:13:30;;;;;;;0.40;0.38;;;10.20;91.60;;;;;;5084749;28;20032;-69
2021/05/15 05:15:56;;;;;;;1.77;0.77;;;10.30;91.40;;;;;;5089297;28;20140;-68
2021/05/15 05:18:23;;;;;;;1.55;0.60;;;10.40;91.00;;;;;;5089617;28;20145;-67
2021/05/15 05:20:49;;;;;;;1.63;0.63;;;10.50;90.70;;;;;;5089988;28;20101;-69
2021/05/15 05:23:15;;;;;;;0.95;0.52;;;10.60;90.30;;;;;;5087951;28;20081;-68
2021/05/15 05:25:40;;;;;;;0.50;0.50;;;10.80;88.90;;;;;;5086619;28;20049;-68
2021/05/15 05:28:07;;;;;;;2.35;0.70;;;11.10;87.80;;;;;;5086381;28;20522;-68
2021/05/15 05:30:33;;;;;;;1.42;0.50;;;11.30;86.20;;;;;;5089217;28;20491;-67
2021/05/15 05:33:00;;;;;;;0.68;0.68;;;11.50;84.90;;;;;;5088005;28;20032;-68
2021/05/15 05:35:26;;;;;;;0.70;0.52;;;11.60;83.10;;;;;;5085674;28;20119;-68
2021/05/15 05:37:52;;;;;;;1.23;0.55;;;11.70;82.00;;;;;;5087297;28;20028;-70
2021/05/15 05:40:18;;;;;;;0.77;0.50;;;11.80;81.50;;;;;;5089445;28;20093;-66
2021/05/15 05:42:44;;;;;;;1.65;0.60;;;11.80;81.40;;;;;;5087365;28;20044;-68
2021/05/15 05:45:14;;;;;;;1.17;0.80;;;11.80;80.80;;;;;;5086107;28;20028;-68
2021/05/15 05:47:40;;;;;;;0.70;0.60;;;11.70;81.20;;;;;;5086207;28;20032;-69
2021/05/15 05:50:06;;;;;;;2.80;0.60;;;11.80;80.90;;;;;;5088783;28;20036;-68
2021/05/15 05:52:32;;;;;;;0.80;0.55;;;11.70;81.00;;;;;;5088254;28;20103;-68
2021/05/15 05:54:58;;;;;;;0.95;0.40;;;11.70;81.20;;;;;;5089001;28;20112;-68
2021/05/15 05:57:27;;;;;;;1.33;0.40;;;11.80;80.80;;;;;;5086982;28;20108;-68
2021/05/15 05:59:52;;;;;;;1.00;0.40;;;11.80;80.70;;;;;;5083911;28;20064;-69
2021/05/15 06:02:18;;;;;;;0.80;0.47;;;11.90;79.70;;;;;;5085077;28;20028;-67
2021/05/15 06:04:43;;;;;;;1.00;0.50;;;11.90;78.70;;;;;;5087708;28;20040;-70
2021/05/15 06:07:09;;;;;;;0.40;0.40;;;11.90;78.30;;;;;;5087510;28;20163;-70
2021/05/15 06:09:35;;;;;;;3.13;0.60;;;12.00;78.40;;;;;;5086823;28;20025;-70
2021/05/15 06:12:01;;;;;;;0.70;0.60;;;12.10;77.90;;;;;;5085388;28;20059;-70
2021/05/15 06:14:27;;;;;;;2.35;0.60;;;12.10;77.80;;;;;;5088304;28;20112;-69
2021/05/15 06:16:53;;;;;;;0.70;0.55;;;12.20;77.30;;;;;;5088449;28;20107;-69
2021/05/15 06:19:19;;;;;;;3.15;0.35;;;12.20;77.00;;;;;;5082673;28;20741;-67
2021/05/15 06:21:46;;;;;;;0.40;0.40;;;12.20;77.10;;;;;;5088276;28;20050;-69
2021/05/15 06:24:12;;;;;;;1.50;0.45;;;12.20;77.10;;;;;;5087066;28;20037;-68
2021/05/15 06:26:38;;;;;;;1.17;0.60;;;12.10;77.20;;;;;;5084178;28;20031;-69
2021/05/15 06:29:05;;;;;;;1.58;0.45;;;12.20;77.10;;;;;;5088151;28;20034;-69
2021/05/15 06:31:31;;;;;;;0.77;0.50;;;12.30;77.10;;;;;;5084626;28;20462;-68
2021/05/15 06:33:56;;;;;;;1.30;0.70;;;12.40;76.40;;;;;;5086247;28;20032;-68
2021/05/15 06:36:22;;;;;;;1.00;0.50;;;12.50;76.10;;;;;;5088507;28;20020;-67
2021/05/15 06:38:48;;;;;;;1.35;0.50;;;12.60;76.00;;;;;;5088107;28;20389;-68
2021/05/15 06:41:13;;;;;;;0.63;0.43;;;12.80;75.30;;;;;;5086957;28;20024;-70
2021/05/15 06:43:39;;;;;;;0.47;0.40;;;12.90;74.30;;;;;;5085887;28;20028;-68
2021/05/15 06:46:05;;;;;;;0.45;0.45;;;13.10;73.80;;;;;;5086574;28;20126;-69
2021/05/15 06:48:31;;;;;;;1.05;0.40;;;13.40;72.70;;;;;;5082698;28;20533;-69
2021/05/15 06:50:56;;;;;;;1.55;0.45;;;13.60;71.50;;;;;;5087604;28;20033;-69
2021/05/15 06:53:22;;;;;;;0.93;0.40;;;13.80;70.80;;;;;;5084855;28;20028;-69
2021/05/15 06:55:48;;;;;;;1.98;0.40;;;14.00;69.50;;;;;;5086277;28;20028;-69
2021/05/15 06:58:14;;;;;;;0.85;0.43;;;14.10;68.10;;;;;;5084338;28;20032;-69
2021/05/15 07:00:40;;;;;;;1.25;0.47;;;14.10;68.10;;;;;;5046429;28;20112;-69
2021/05/15 07:03:06;;;;;;;1.98;0.38;;;14.30;68.20;;;;;;5067285;28;20055;-69
2021/05/15 07:05:33;;;;;;;2.03;0.50;;;14.40;67.40;;;;;;5046463;28;20119;-69
2021/05/15 07:07:59;;;;;;;2.05;0.32;;;14.40;67.10;;;;;;5062135;28;20119;-69
2021/05/15 07:10:24;;;;;;;1.10;0.30;;;14.40;66.90;;;;;;5064832;28;20509;-69
2021/05/15 07:12:50;;;;;;;0.90;0.40;;;14.40;67.20;;;;;;5067761;28;20032;-69
2021/05/15 07:15:16;;;;;;;2.20;0.40;;;14.30;67.20;;;;;;5070280;28;20071;-68
2021/05/15 07:17:41;;;;;;;1.63;0.47;;;14.30;67.20;;;;;;5066856;28;20032;-68
2021/05/15 07:20:08;;;;;;;2.20;0.60;;;14.40;67.20;;;;;;5051029;28;20036;-69
2021/05/15 07:22:34;;;;;;;3.08;0.68;;;14.40;66.90;;;;;;5066097;28;20031;-69
2021/05/15 07:25:00;;;;;;;0.80;0.40;;;14.60;66.70;;;;;;5064074;28;20398;-70
2021/05/15 07:27:28;;;;;;;1.17;0.50;;;14.60;66.60;;;;;;5029707;28;20066;-69
2021/05/15 07:29:55;;;;;;;0.68;0.47;;;14.70;66.60;;;;;;5068356;28;20025;-70
2021/05/15 07:32:22;;;;;;;1.25;0.65;;;14.70;66.90;;;;;;5065999;28;20029;-68
2021/05/15 07:34:48;;;;;;;1.23;0.57;;;14.70;65.60;;;;;;5067565;28;20481;-68
2021/05/15 07:37:14;;;;;;;1.50;0.45;;;14.60;65.80;;;;;;5067646;28;20378;-68
2021/05/15 07:39:41;;;;;;;0.73;0.43;;;14.50;66.10;;;;;;5065066;28;20093;-69
2021/05/15 07:42:07;;;;;;;1.40;0.50;;;14.50;66.00;;;;;;5066472;28;20068;-69
2021/05/15 07:44:33;;;;;;;1.10;0.50;;;14.40;66.10;;;;;;5065650;28;20067;-69
2021/05/15 07:46:59;;;;;;;1.60;0.40;;;14.30;65.80;;;;;;5063224;28;20017;-69
2021/05/15 07:49:25;;;;;;;0.70;0.30;;;14.40;66.40;;;;;;5046241;28;20020;-69
2021/05/15 07:51:53;;;;;;;0.65;0.50;;;14.50;66.50;;;;;;5066446;28;20458;-69
2021/05/15 07:54:19;;;;;;;1.08;0.43;;;14.70;66.30;;;;;;5063373;28;20028;-67
2021/05/15 07:56:45;;;;;;;0.60;0.38;;;14.80;65.30;;;;;;5064004;28;20031;-69
2021/05/15 07:59:11;;;;;;;1.27;0.50;;;15.00;64.60;;;;;;5065162;28;20049;-69
2021/05/15 08:01:36;;;;;;;1.10;0.70;;;15.20;65.00;;;;;;5064851;28;20086;-69
2021/05/15 08:04:02;;;;;;;1.52;0.65;;;15.40;63.70;;;;;;5070194;28;20124;-68
2021/05/15 08:06:28;;;;;;;1.00;0.25;;;15.50;63.40;;;;;;5055323;28;20063;-71
2021/05/15 08:08:53;;;;;;;1.25;0.60;;;15.50;63.30;;;;;;5075143;28;20021;-79
2021/05/15 08:11:19;;;;;;;2.63;0.60;;;15.60;63.00;;;;;;5073840;28;20029;-69
2021/05/15 08:13:45;;;;;;;2.78;0.40;;;15.60;62.60;;;;;;5050654;28;20033;-76
2021/05/15 08:16:13;;;;;;;1.90;0.57;;;15.60;61.80;;;;;;5074322;28;20099;-79
2021/05/15 08:18:40;;;;;;;2.38;0.43;;;15.50;61.20;;;;;;5056045;28;20024;-75
2021/05/15 08:21:06;;;;;;;1.05;0.40;;;15.30;62.10;;;;;;5074439;28;20028;-79
2021/05/15 08:23:35;;;;;;;0.32;0.32;;;15.10;62.70;;;;;;5030995;28;20048;-70
2021/05/15 08:26:03;;;;;;;3.28;0.60;;;15.10;62.30;;;;;;5056610;28;20021;-73
2021/05/15 08:28:29;;;;;;;1.45;0.45;;;14.90;63.30;;;;;;5055283;28;20033;-71
2021/05/15 08:30:54;;;;;;;1.55;0.60;;;14.90;63.20;;;;;;5074402;28;20107;-72
2021/05/15 08:33:20;;;;;;;2.63;0.40;;;14.90;63.50;;;;;;5073661;28;20115;-70
2021/05/15 08:35:46;;;;;;;3.83;0.43;;;14.90;63.20;;;;;;5074435;28;20032;-69
2021/05/15 08:38:11;;;;;;;2.90;0.35;;;14.90;63.20;;;;;;5074391;28;20024;-70
2021/05/15 08:40:37;;;;;;;0.40;0.28;;;14.80;63.40;;;;;;5069764;28;20037;-70
2021/05/15 08:43:05;;;;;;;1.55;0.63;;;14.80;63.90;;;;;;5065569;28;20462;-69
2021/05/15 08:45:31;;;;;;;1.73;0.80;;;14.90;63.50;;;;;;5073216;28;20423;-72
2021/05/15 08:47:57;;;;;;;2.65;0.40;;;14.90;62.90;;;;;;5074171;28;20082;-73
2021/05/15 08:50:26;;;;;;;0.90;0.52;;;15.00;63.10;;;;;;5073485;28;20028;-72
2021/05/15 08:52:54;;;;;;;1.35;0.60;;;15.00;63.60;;;;;;5073343;28;20119;-72
2021/05/15 08:55:29;;;;;;;1.75;0.73;;;14.90;63.40;;;;;;5073441;28;20032;-74
2021/05/15 08:57:56;;;;;;;0.85;0.60;;;14.90;63.40;;;;;;5071150;28;20047;-72
2021/05/15 09:00:27;;;;;;;1.70;0.47;;;15.10;62.90;;;;;;5087978;28;20052;-69
2021/05/15 09:02:56;;;;;;;1.20;0.70;;;15.00;62.90;;;;;;5093898;28;20081;-72
2021/05/15 09:05:24;;;;;;;2.15;0.57;;;15.10;62.90;;;;;;5093493;28;20140;-69
2021/05/15 09:07:53;;;;;;;1.63;0.50;;;15.20;62.10;;;;;;5075850;28;20061;-74
2021/05/15 09:10:26;;;;;;;1.67;0.35;;;15.30;62.30;;;;;;5092182;28;20089;-71
2021/05/15 09:12:52;;;;;;;0.40;0.35;;;15.50;62.60;;;;;;5092797;28;20028;-78
2021/05/15 09:15:18;;;;;;;2.22;0.70;;;15.50;61.90;;;;;;5091366;28;20068;-74
2021/05/15 09:17:49;;;;;;;1.17;0.82;;;15.60;61.70;;;;;;5093625;28;20059;-75
2021/05/15 09:20:41;;;;;;;1.17;0.57;;;15.60;61.90;;;;;;5093420;28;20070;-75
2021/05/15 09:23:31;;;;;;;0.40;0.40;;;15.70;61.10;;;;;;5087749;28;20048;-73
2021/05/15 09:26:01;;;;;;;4.10;0.75;;;15.80;61.00;;;;;;5086225;28;20075;-75
2021/05/15 09:28:35;;;;;;;2.80;0.43;;;15.90;60.40;;;;;;5092731;28;20156;-74
2021/05/15 09:31:23;;;;;;;1.70;0.55;;;16.10;59.60;;;;;;5092535;28;20032;-76
2021/05/15 09:34:01;;;;;;;1.10;0.65;;;16.20;60.20;;;;;;5085283;28;20115;-74
2021/05/15 09:36:38;;;;;;;1.20;0.45;;;16.40;59.20;;;;;;5082778;28;20382;-77
2021/05/15 09:39:06;;;;;;;1.52;0.52;;;16.60;59.00;;;;;;5093564;28;20050;-82
2021/05/15 09:41:36;;;;;;;0.47;0.32;;;16.70;58.70;;;;;;5092686;28;20070;-72
2021/05/15 09:44:04;;;;;;;1.15;0.40;;;17.00;58.00;;;;;;5093336;28;20036;-73
2021/05/15 09:46:32;;;;;;;0.85;0.50;;;17.10;57.50;;;;;;5091758;28;20029;-72
2021/05/15 09:48:58;;;;;;;3.90;0.63;;;17.10;56.90;;;;;;5093310;28;20024;-72
2021/05/15 09:51:24;;;;;;;0.77;0.60;;;17.20;57.20;;;;;;5092288;28;20414;-72
2021/05/15 09:53:50;;;;;;;6.25;0.60;;;17.10;56.30;;;;;;5093378;28;20569;-74
2021/05/15 09:56:29;;;;;;;2.65;0.77;;;16.90;56.90;;;;;;5093179;28;20468;-73
2021/05/15 09:58:56;;;;;;;2.35;0.30;;;16.80;56.80;;;;;;5091258;28;20476;-77
2021/05/15 10:01:23;;;;;;;0.98;0.40;;;16.80;57.40;;;;;;5093668;28;20040;-75
2021/05/15 10:04:02;;;;;;;1.27;0.60;;;16.70;57.80;;;;;;5092550;28;20043;-74
2021/05/15 10:06:28;;;;;;;1.13;0.70;;;16.80;58.30;;;;;;5092228;28;20099;-73
2021/05/15 10:08:54;;;;;;;1.42;0.43;;;16.80;57.30;;;;;;5092652;28;20026;-75
2021/05/15 10:11:21;;;;;;;0.68;0.63;;;16.70;56.90;;;;;;5092860;28;20028;-71
2021/05/15 10:13:47;;;;;;;1.20;0.60;;;16.80;57.70;;;;;;5092796;28;20039;-74
2021/05/15 10:16:13;;;;;;;0.95;0.55;;;16.80;56.80;;;;;;5091396;28;20370;-76
2021/05/15 10:18:39;;;;;;;3.75;0.63;;;16.70;56.70;;;;;;5091464;28;20045;-75
2021/05/15 10:21:05;;;;;;;1.48;0.47;;;16.50;57.40;;;;;;5092939;28;20028;-79
2021/05/15 10:23:40;;;;;;;1.95;0.60;;;16.50;57.00;;;;;;5086580;28;20059;-79
2021/05/15 10:26:09;;;;;;;0.98;0.60;;;16.60;56.50;;;;;;5091331;28;20082;-75
2021/05/15 10:28:37;;;;;;;0.73;0.57;;;16.70;56.70;;;;;;5088638;28;20062;-77
2021/05/15 10:31:06;;;;;;;2.17;0.88;;;16.80;57.60;;;;;;5087730;28;20044;-78
2021/05/15 10:33:33;;;;;;;1.20;0.68;;;16.70;57.00;;;;;;5091243;28;20024;-79
2021/05/15 10:35:59;;;;;;;3.28;0.73;;;16.60;57.10;;;;;;5090850;28;20059;-80
2021/05/15 10:38:37;;;;;;;0.60;0.52;;;16.40;57.60;;;;;;5091313;28;20499;-78
2021/05/15 10:41:12;;;;;;;2.83;0.70;;;16.40;57.10;;;;;;5091999;28;20039;-78
2021/05/15 10:43:39;;;;;;;1.90;0.50;;;16.50;57.60;;;;;;5091624;28;20032;-77
2021/05/15 10:46:24;;;;;;;3.30;0.70;;;16.50;56.60;;;;;;5093447;28;20016;-74
2021/05/15 10:49:15;;;;;;;1.48;0.70;;;17.00;56.70;;;;;;5092095;28;20032;-76
2021/05/15 10:51:47;;;;;;;1.95;0.70;;;17.50;55.60;;;;;;5091406;28;20507;-78
2021/05/15 10:54:34;;;;;;;4.72;1.02;;;18.00;52.90;;;;;;5090741;28;20055;-77
2021/05/15 10:57:03;;;;;;;1.30;0.70;;;18.20;52.10;;;;;;5088108;28;20039;-77
2021/05/15 10:59:29;;;;;;;1.10;0.40;;;18.10;52.60;;;;;;5080027;28;20040;-73
2021/05/15 11:01:58;;;;;;;1.73;0.60;;;17.90;52.50;;;;;;5071529;28;20086;-77
2021/05/15 11:04:29;;;;;;;4.53;0.60;;;17.70;53.60;;;;;;5044977;28;20037;-76
2021/05/15 11:06:55;;;;;;;;;;;17.40;54.00;;;;;;5071946;28;20381;-80
2021/05/15 11:09:20;;;;;;;5.22;0.90;;;17.20;54.00;;;;;;5070990;28;20044;-76
2021/05/15 11:11:48;;;;;;;2.83;0.63;;;17.00;55.60;;;;;;5052983;28;20028;-76
2021/05/15 11:14:28;;;;;;;2.25;0.73;;;16.70;56.90;;;;;;5071052;28;20029;-76
2021/05/15 11:17:03;;;;;;;2.97;0.70;;;16.60;55.20;;;;;;5071876;28;20335;-74
2021/05/15 11:19:29;;;;;;;5.88;0.82;;;16.60;54.20;;;;;;5070938;28;20047;-73
2021/05/15 11:21:55;;;;;;;2.47;0.60;;;16.50;54.40;;;;;;5071055;28;20028;-74
2021/05/15 11:24:35;;;;;;;2.40;0.75;;;16.40;54.30;;;;;;5062541;28;20041;-74
2021/05/15 11:27:13;;;;;;;;;;;16.40;54.20;;;;;;5072446;28;20052;-73
2021/05/15 11:29:38;;;;;;;1.33;0.85;;;16.40;54.40;;;;;;5070487;28;20038;-73
2021/05/15 11:32:13;;;;;;;3.53;0.93;;;16.50;52.80;;;;;;5071220;28;20107;-74
2021/05/15 11:34:39;;;;;;;2.60;0.88;;;16.50;52.80;;;;;;5069864;28;20032;-72
2021/05/15 11:37:06;;;;;;;2.60;0.75;;;16.50;53.70;;;;;;5052745;28;20373;-72
2021/05/15 11:39:32;;;;;;;6.05;0.88;;;16.60;53.00;;;;;;5070104;28;20028;-72
2021/05/15 11:42:16;;;;;;;1.48;0.55;;;16.60;52.80;;;;;;5070999;28;20093;-72
2021/05/15 11:44:43;;;;;;;3.53;0.98;;;16.70;52.40;;;;;;5070091;28;20776;-72
2021/05/15 11:47:11;;;;;;;1.35;0.60;;;16.90;52.60;;;;;;5071197;28;20052;-72
2021/05/15 11:49:38;;;;;;;4.50;0.98;;;17.00;52.00;;;;;;5052028;28;20193;-75
2021/05/15 11:52:09;;;;;;;1.67;0.75;;;17.40;51.10;;;;;;5071085;28;20389;-76
2021/05/15 11:54:36;;;;;;;2.05;0.77;;;17.60;50.70;;;;;;5070230;28;20044;-75
2021/05/15 11:57:02;;;;;;;1.80;0.80;;;17.90;49.90;;;;;;5071084;28;20036;-74
2021/05/15 11:59:29;;;;;;;3.67;0.95;;;18.10;49.80;;;;;;5069997;28;20044;-74
2021/05/15 12:01:56;;;;;;;2.53;1.23;;;18.10;50.20;;;;;;5071054;28;20111;-75
2021/05/15 12:04:30;;;;;;;2.78;1.00;;;18.10;50.70;;;;;;5071005;28;20590;-75
2021/05/15 12:06:58;;;;;;;3.35;1.25;;;18.20;50.00;;;;;;5071078;28;20036;-74
2021/05/15 12:09:27;;;;;;;2.35;0.63;;;18.20;48.80;;;;;;5052344;28;20031;-74
2021/05/15 12:12:01;;;;;;;2.50;0.77;;;18.30;49.00;;;;;;5070865;28;20032;-74
2021/05/15 12:14:28;;;;;;;5.13;1.00;;;18.30;48.90;;;;;;5070305;28;20036;-75
2021/05/15 12:16:54;;;;;;;3.25;0.90;;;18.30;49.40;;;;;;5068470;28;20021;-75
2021/05/15 12:19:23;;;;;;;2.95;0.50;;;18.40;49.50;;;;;;5061429;28;20032;-74
2021/05/15 12:22:04;;;;;;;1.95;0.60;;;18.30;49.60;;;;;;5069221;28;20041;-74
2021/05/15 12:24:35;;;;;;;2.15;0.95;;;18.40;48.60;;;;;;5065872;28;20042;-75
2021/05/15 12:27:19;;;;;;;2.00;0.93;;;18.40;47.40;;;;;;5070845;28;20031;-73
2021/05/15 12:29:45;;;;;;;2.75;0.57;;;18.40;47.70;;;;;;5069974;28;20038;-74
2021/05/15 12:32:11;;;;;;;2.60;0.70;;;18.40;48.40;;;;;;5052811;28;20106;-75
2021/05/15 12:34:38;;;;;;;2.53;0.88;;;18.60;48.40;;;;;;5051418;28;20071;-75
2021/05/15 12:37:20;;;;;;;3.45;0.88;;;18.80;48.70;;;;;;5070878;28;20491;-76
2021/05/15 12:39:46;;;;;;;1.83;0.70;;;18.90;46.90;;;;;;5069516;28;20021;-74
2021/05/15 12:42:15;;;;;;;2.42;0.65;;;18.90;47.40;;;;;;5052627;28;20373;-73
2021/05/15 12:44:43;;;;;;;0.82;0.55;;;19.00;47.80;;;;;;5069615;28;20051;-75
2021/05/15 12:47:09;;;;;;;1.98;0.77;;;19.00;47.00;;;;;;5052549;28;20034;-74
2021/05/15 12:49:41;;;;;;;1.15;0.60;;;18.90;47.60;;;;;;5072385;28;20028;-75
2021/05/15 12:52:22;;;;;;;3.80;1.05;;;18.90;47.80;;;;;;5065638;28;20033;-76